Denver, Colorado
Traffic Map
Current Weather Conditions
Denver, Colorado
Scattered Clouds
Scattered Clouds

Feels Like: 1°
Wind Chill: Ceiling: Unl
Heat Index: Visibility: 10mi
Dew Point: Wind: 8mph
Humidity: 98% Direction: 180° (S)
Pressure: 29.93in Gusts: 0mph
Raw Report DataKBKF 241058Z 18007KT 10SM FEW010 FEW110 SCT220 05/04 A2993 RMK AO2A SLP112 T00450042
Traffic Incident Summary
Active as of:
Severity:
Category:
InformationThere was an issue retrieving the traffic information for this location. Please try a different location or try again shortly.
Advertisements
Track Severe Weather on mobile